METAR Formatted Surface Weather Observation
Issued by NWS

Current Version | Previous Version | Text Only | Print | Product List | Glossary On
Versions: 1 2 3 4 5 6 7 8 9 10 11 12 13 14 15 16 17
000
SAUS41 KRLX 031054
MTRCKB
METAR KCKB 031053Z 00000KT 10SM CLR 06/05 A3014 RMK AO2 SLP200
T00610050



USA.gov is the U.S. government's official web portal to all federal, state and local government web resources and services.